createdAt,value
2023-02-19T00:01:49.850Z,96475.16
2023-02-19T00:04:19.871Z,96475.16
2023-02-19T00:06:48.693Z,96482.41
2023-02-19T00:09:18.150Z,96479.41
2023-02-19T00:11:48.750Z,96477.78
2023-02-19T00:14:21.272Z,96474.69
2023-02-19T00:16:50.848Z,96477.91
2023-02-19T00:19:20.793Z,96479.31
2023-02-19T00:21:53.351Z,96471.41
2023-02-19T00:24:22.154Z,96470.53
2023-02-19T00:26:50.363Z,96474.66
2023-02-19T00:29:20.366Z,96473.41
2023-02-19T00:31:51.301Z,96472.44
2023-02-19T00:34:19.003Z,96472.16
2023-02-19T00:36:49.926Z,96473.91
2023-02-19T00:39:21.529Z,96476.66
2023-02-19T00:41:48.700Z,96471.47
2023-02-19T00:44:15.891Z,96470.00
2023-02-19T00:46:49.946Z,96472.84
2023-02-19T00:49:21.843Z,96472.31
2023-02-19T00:51:51.253Z,96472.63
2023-02-19T00:54:21.073Z,96471.13
2023-02-19T00:56:48.202Z,96478.75
2023-02-19T00:59:16.419Z,96481.38
2023-02-19T01:01:47.383Z,96475.50
2023-02-19T01:04:14.541Z,96472.88
2023-02-19T01:06:43.741Z,96472.56
2023-02-19T01:09:13.160Z,96471.94
2023-02-19T01:11:42.685Z,96464.28
2023-02-19T01:14:11.015Z,96461.25
2023-02-19T01:16:40.719Z,96469.31
2023-02-19T01:19:07.917Z,96463.75
2023-02-19T01:21:35.115Z,96465.94
2023-02-19T01:24:04.421Z,96460.69
2023-02-19T01:26:33.374Z,96469.13
2023-02-19T01:29:03.904Z,96472.91
2023-02-19T01:31:33.721Z,96462.06
2023-02-19T01:34:02.898Z,96463.44
2023-02-19T01:36:33.956Z,96465.22
2023-02-19T01:39:04.328Z,96457.13
2023-02-19T01:41:35.802Z,96462.38
2023-02-19T01:44:06.555Z,96455.47
2023-02-19T01:46:35.457Z,96455.38
2023-02-19T01:49:08.837Z,96447.63
2023-02-19T01:51:41.038Z,96446.66
2023-02-19T01:54:14.256Z,96450.41
2023-02-19T01:56:44.976Z,96450.13
2023-02-19T01:59:13.982Z,96446.97
2023-02-19T02:01:42.426Z,96443.44
2023-02-19T02:04:15.779Z,96436.38
2023-02-19T02:06:50.399Z,96432.97
2023-02-19T02:09:21.227Z,96426.25
2023-02-19T02:11:51.580Z,96432.97
2023-02-19T02:14:26.010Z,96419.03
2023-02-19T02:17:01.960Z,96414.00
2023-02-19T02:20:00.002Z,96419.09
2023-02-19T02:22:35.681Z,96425.84
2023-02-19T02:25:35.802Z,96423.50
2023-02-19T02:28:23.440Z,96418.09
2023-02-19T02:30:56.503Z,96414.69
2023-02-19T02:33:33.696Z,96416.63
2023-02-19T02:36:07.258Z,96411.22
2023-02-19T02:38:40.621Z,96406.94
2023-02-19T02:41:09.792Z,96405.78
2023-02-19T02:43:37.123Z,96398.31
2023-02-19T02:46:06.539Z,96409.03
2023-02-19T02:48:44.062Z,96406.16
2023-02-19T02:51:19.261Z,96402.75
2023-02-19T02:53:52.257Z,96397.47
2023-02-19T02:56:21.020Z,96402.53
2023-02-19T02:58:51.439Z,96403.78
2023-02-19T03:01:25.628Z,96409.81
2023-02-19T03:04:00.144Z,96398.47
2023-02-19T03:06:32.299Z,96403.97
2023-02-19T03:09:09.398Z,96395.94
2023-02-19T03:11:41.898Z,96392.63
2023-02-19T03:14:16.560Z,96389.03
2023-02-19T03:16:48.739Z,96380.31
2023-02-19T03:19:20.499Z,96385.81
2023-02-19T03:21:55.774Z,96395.31
2023-02-19T03:24:29.094Z,96399.13
2023-02-19T03:26:59.554Z,96395.78
2023-02-19T03:29:32.095Z,96394.22
2023-02-19T03:32:07.026Z,96387.53
2023-02-19T03:34:41.599Z,96379.69
2023-02-19T03:37:15.991Z,96367.31
2023-02-19T03:39:44.126Z,96374.34
2023-02-19T03:42:23.628Z,96381.25
2023-02-19T03:45:07.244Z,96373.59
2023-02-19T03:47:48.565Z,96377.63
2023-02-19T03:50:22.189Z,96376.59
2023-02-19T03:52:59.171Z,96377.53
2023-02-19T03:55:32.409Z,96384.41
2023-02-19T03:58:09.112Z,96386.38
2023-02-19T04:00:43.196Z,96386.38
2023-02-19T04:03:20.293Z,96391.28
2023-02-19T04:05:53.761Z,96392.88
2023-02-19T04:08:24.657Z,96394.91
2023-02-19T04:10:55.438Z,96403.34
2023-02-19T04:13:29.345Z,96401.38
2023-02-19T04:16:02.073Z,96406.44
2023-02-19T04:18:36.410Z,96401.47
2023-02-19T04:21:07.214Z,96414.81
2023-02-19T04:23:40.636Z,96405.53
2023-02-19T04:26:11.476Z,96413.16
2023-02-19T04:28:39.799Z,96414.41
2023-02-19T04:31:07.694Z,96418.13
2023-02-19T04:33:37.366Z,96426.00
2023-02-19T04:36:05.242Z,96436.31
2023-02-19T04:38:32.464Z,96447.81
2023-02-19T04:40:59.774Z,96441.53
2023-02-19T04:43:27.108Z,96453.72
2023-02-19T04:45:54.319Z,96450.75
2023-02-19T04:48:21.455Z,96442.28
2023-02-19T04:50:50.028Z,96436.81
2023-02-19T04:53:17.187Z,96447.75
2023-02-19T04:55:44.404Z,96446.72
2023-02-19T04:58:11.649Z,96449.72
2023-02-19T05:00:39.052Z,96458.41
2023-02-19T05:03:06.333Z,96461.72
2023-02-19T05:05:34.814Z,96463.34
2023-02-19T05:08:03.588Z,96444.31
2023-02-19T05:10:30.948Z,96421.09
2023-02-19T05:12:58.229Z,96419.50
2023-02-19T05:15:25.452Z,96432.47
2023-02-19T05:17:52.697Z,96429.06
2023-02-19T05:20:20.054Z,96421.25
2023-02-19T05:22:47.313Z,96421.50
2023-02-19T05:25:16.356Z,96419.41
2023-02-19T05:27:44.206Z,96412.03
2023-02-19T05:30:12.331Z,96402.78
2023-02-19T05:32:39.611Z,96391.16
2023-02-19T05:35:07.347Z,96388.31
2023-02-19T05:37:34.454Z,96396.13
2023-02-19T05:40:01.674Z,96385.00
2023-02-19T05:42:30.222Z,96385.91
2023-02-19T05:44:57.517Z,96378.44
2023-02-19T05:47:24.849Z,96374.38
2023-02-19T05:49:52.048Z,96374.66
2023-02-19T05:52:19.147Z,96392.88
2023-02-19T05:54:46.290Z,96407.59
2023-02-19T05:57:13.530Z,96403.53
2023-02-19T05:59:42.403Z,96390.19
2023-02-19T06:02:10.140Z,96388.75
2023-02-19T06:04:37.563Z,96387.53
2023-02-19T06:07:04.811Z,96393.19
2023-02-19T06:09:32.072Z,96387.53
2023-02-19T06:11:59.195Z,96385.94
2023-02-19T06:14:26.408Z,96397.75
2023-02-19T06:16:54.964Z,96405.59
2023-02-19T06:19:22.121Z,96423.31
2023-02-19T06:21:50.984Z,96424.94
2023-02-19T06:24:18.295Z,96418.50
2023-02-19T06:26:45.512Z,96417.88
2023-02-19T06:29:12.700Z,96426.88
2023-02-19T06:31:40.158Z,96429.91
2023-02-19T06:34:09.036Z,96445.88
2023-02-19T06:36:36.558Z,96455.50
2023-02-19T06:39:05.604Z,96451.94
2023-02-19T06:41:33.922Z,96464.44
2023-02-19T06:44:02.083Z,96461.81
2023-02-19T06:46:29.367Z,96466.28
2023-02-19T06:48:56.572Z,96462.09
2023-02-19T06:51:25.280Z,96462.28
2023-02-19T06:53:52.570Z,96458.59
2023-02-19T06:56:25.449Z,96456.97
2023-02-19T06:58:53.607Z,96465.47
2023-02-19T07:01:20.845Z,96469.34
2023-02-19T07:03:48.287Z,96459.66
2023-02-19T07:06:15.656Z,96459.88
2023-02-19T07:08:44.445Z,96471.69
2023-02-19T07:11:12.385Z,96472.06
2023-02-19T07:13:39.736Z,96480.63
2023-02-19T07:16:08.967Z,96487.75
2023-02-19T07:18:36.153Z,96491.91
2023-02-19T07:21:05.321Z,96498.84
2023-02-19T07:23:32.687Z,96501.19
2023-02-19T07:26:02.097Z,96501.25
2023-02-19T07:28:29.559Z,96496.66
2023-02-19T07:31:01.733Z,96492.44
2023-02-19T07:33:29.054Z,96496.09
2023-02-19T07:35:56.808Z,96501.41
2023-02-19T07:38:25.752Z,96501.38
2023-02-19T07:40:54.409Z,96516.47
2023-02-19T07:43:24.198Z,96525.63
2023-02-19T07:45:52.245Z,96518.94
2023-02-19T07:48:19.836Z,96531.66
2023-02-19T07:50:52.387Z,96526.25
2023-02-19T07:53:20.106Z,96533.69
2023-02-19T07:55:47.627Z,96535.78
2023-02-19T07:58:15.380Z,96532.94
2023-02-19T08:00:44.591Z,96537.00
2023-02-19T08:03:12.399Z,96535.00
2023-02-19T08:05:41.857Z,96530.31
2023-02-19T08:08:11.148Z,96538.63
2023-02-19T08:10:38.246Z,96533.59
2023-02-19T08:13:05.357Z,96542.13
2023-02-19T08:15:33.784Z,96550.22
2023-02-19T08:18:02.485Z,96541.75
2023-02-19T08:20:29.669Z,96545.38
2023-02-19T08:22:56.903Z,96552.03
2023-02-19T08:25:24.026Z,96548.06
2023-02-19T08:27:51.198Z,96548.28
2023-02-19T08:30:18.583Z,96540.63
2023-02-19T08:32:45.748Z,96544.09
2023-02-19T08:35:14.465Z,96537.91
2023-02-19T08:37:41.626Z,96538.94
2023-02-19T08:40:10.031Z,96548.56
2023-02-19T08:42:37.191Z,96557.16
2023-02-19T08:45:05.898Z,96553.91
2023-02-19T08:47:35.586Z,96557.81
2023-02-19T08:50:02.956Z,96553.31
2023-02-19T08:52:32.074Z,96547.16
2023-02-19T08:54:59.270Z,96548.94
2023-02-19T08:57:27.350Z,96556.41
2023-02-19T08:59:54.524Z,96557.31
2023-02-19T09:02:21.866Z,96556.34
2023-02-19T09:04:49.026Z,96548.69
2023-02-19T09:07:17.367Z,96549.03
2023-02-19T09:09:46.104Z,96561.44
2023-02-19T09:12:14.203Z,96561.31
2023-02-19T09:14:42.069Z,96549.78
2023-02-19T09:17:10.058Z,96560.22
2023-02-19T09:19:37.597Z,96560.47
2023-02-19T09:22:05.864Z,96558.78
2023-02-19T09:24:33.148Z,96567.47
2023-02-19T09:27:01.867Z,96567.53
2023-02-19T09:29:29.630Z,96557.47
2023-02-19T09:31:58.189Z,96563.69
2023-02-19T09:34:26.880Z,96557.75
2023-02-19T09:36:54.101Z,96558.72
2023-02-19T09:39:21.455Z,96555.09
2023-02-19T09:41:52.848Z,96559.66
2023-02-19T09:44:28.447Z,96553.75
2023-02-19T09:46:57.182Z,96560.25
2023-02-19T09:49:32.329Z,96552.41
2023-02-19T09:52:07.992Z,96548.47
2023-02-19T09:54:38.341Z,96549.78
2023-02-19T09:57:14.254Z,96548.44
2023-02-19T09:59:49.095Z,96544.16
2023-02-19T10:02:18.554Z,96540.47
2023-02-19T10:04:48.119Z,96546.09
2023-02-19T10:07:18.212Z,96542.47
2023-02-19T10:09:48.732Z,96552.47
2023-02-19T10:12:19.658Z,96551.25
2023-02-19T10:14:52.855Z,96550.81
2023-02-19T10:17:27.055Z,96556.56
2023-02-19T10:19:54.794Z,96543.97
2023-02-19T10:22:22.000Z,96555.16
2023-02-19T10:24:53.343Z,96551.13
2023-02-19T10:27:20.705Z,96544.66
2023-02-19T10:29:50.212Z,96550.38
2023-02-19T10:32:20.855Z,96551.09
2023-02-19T10:34:48.149Z,96554.25
2023-02-19T10:37:18.644Z,96552.56
2023-02-19T10:39:49.757Z,96552.81
2023-02-19T10:42:22.865Z,96561.34
2023-02-19T10:44:56.549Z,96554.84
2023-02-19T10:47:27.241Z,96551.59
2023-02-19T10:49:59.446Z,96555.75
2023-02-19T10:52:30.820Z,96547.91
2023-02-19T10:55:15.636Z,96550.00
2023-02-19T10:57:43.332Z,96551.25
2023-02-19T11:00:24.546Z,96544.56
2023-02-19T11:03:19.017Z,96546.00
2023-02-19T11:06:00.159Z,96552.47
2023-02-19T11:08:28.174Z,96542.63
2023-02-19T11:10:55.755Z,96548.31
2023-02-19T11:13:30.008Z,96546.59
2023-02-19T11:16:00.503Z,96541.91
2023-02-19T11:18:31.025Z,96541.22
2023-02-19T11:21:01.936Z,96539.91
2023-02-19T11:23:32.647Z,96528.03
2023-02-19T11:26:04.307Z,96532.44
2023-02-19T11:28:35.288Z,96516.81
2023-02-19T11:31:26.313Z,96520.28
2023-02-19T11:33:58.952Z,96516.94
2023-02-19T11:36:31.909Z,96512.34
2023-02-19T11:39:20.527Z,96512.22
2023-02-19T11:42:10.560Z,96507.25
2023-02-19T11:44:52.631Z,96502.16
2023-02-19T11:47:52.048Z,96494.72
2023-02-19T11:50:27.388Z,96500.47
2023-02-19T11:53:14.456Z,96492.31
2023-02-19T11:55:57.535Z,96495.34
2023-02-19T11:58:49.190Z,96490.50
2023-02-19T12:01:27.352Z,96481.50
2023-02-19T12:04:20.171Z,96474.03
2023-02-19T12:07:03.369Z,96466.56
2023-02-19T12:09:43.721Z,96469.69
2023-02-19T12:12:42.101Z,96466.81
2023-02-19T12:18:50.170Z,96452.22
2023-02-19T12:21:58.372Z,96448.41
2023-02-19T12:24:51.240Z,96455.16
2023-02-19T12:27:36.443Z,96441.28
2023-02-19T12:30:25.652Z,96448.47
2023-02-19T12:33:15.649Z,96451.91
2023-02-19T12:35:52.508Z,96450.56
2023-02-19T12:38:27.290Z,96449.22
2023-02-19T12:41:18.524Z,96447.84
2023-02-19T12:43:54.747Z,96449.69
2023-02-19T12:46:29.769Z,96450.75
2023-02-19T12:49:05.301Z,96444.47
2023-02-19T12:51:39.995Z,96442.59
2023-02-19T12:54:15.310Z,96444.03
2023-02-19T12:56:52.616Z,96438.22
2023-02-19T12:59:29.218Z,96437.59
2023-02-19T13:02:06.229Z,96435.47
2023-02-19T13:04:43.518Z,96431.16
2023-02-19T13:07:17.706Z,96434.84
2023-02-19T13:09:50.815Z,96426.69
2023-02-19T13:12:25.077Z,96417.53
2023-02-19T13:14:58.097Z,96422.94
2023-02-19T13:17:32.284Z,96420.63
2023-02-19T13:20:13.819Z,96417.44
2023-02-19T13:22:50.750Z,96410.97
2023-02-19T13:25:21.276Z,96406.09
2023-02-19T13:28:20.477Z,96414.94
2023-02-19T13:31:25.246Z,96418.56
2023-02-19T13:34:07.482Z,96408.97
2023-02-19T13:36:37.216Z,96404.75
2023-02-19T13:39:06.733Z,96413.53
2023-02-19T13:41:41.174Z,96414.00
2023-02-19T13:44:21.406Z,96409.41
2023-02-19T13:46:50.934Z,96417.47
2023-02-19T13:49:37.860Z,96413.63
2023-02-19T13:52:46.887Z,96420.88
2023-02-19T13:55:50.272Z,96409.81
2023-02-19T13:58:58.649Z,96397.00
2023-02-19T14:02:13.141Z,96399.59
2023-02-19T14:05:00.458Z,96408.22
2023-02-19T14:07:53.854Z,96412.56
2023-02-19T14:10:52.333Z,96406.75
2023-02-19T14:13:49.029Z,96405.47
2023-02-19T14:16:48.693Z,96400.56
2023-02-19T14:19:41.496Z,96389.81
2023-02-19T14:22:41.672Z,96384.00
2023-02-19T14:25:33.691Z,96374.00
2023-02-19T14:28:06.378Z,96366.19
2023-02-19T14:30:40.934Z,96369.66
2023-02-19T14:33:11.490Z,96364.66
2023-02-19T14:35:43.876Z,96355.38
2023-02-19T14:38:18.249Z,96360.91
2023-02-19T14:40:48.967Z,96358.38
2023-02-19T14:43:19.769Z,96363.22
2023-02-19T14:45:53.369Z,96365.31
2023-02-19T14:48:28.341Z,96349.69
2023-02-19T14:51:02.815Z,96356.53
2023-02-19T14:53:35.011Z,96353.75
2023-02-19T14:56:04.170Z,96363.34
2023-02-19T14:58:34.430Z,96363.78
2023-02-19T15:01:01.509Z,96374.97
2023-02-19T15:03:32.880Z,96383.41
2023-02-19T15:06:05.373Z,96383.28
2023-02-19T15:08:37.849Z,96386.06
2023-02-19T15:11:12.148Z,96397.50
2023-02-19T15:13:40.640Z,96384.69
2023-02-19T15:16:08.004Z,96385.75
2023-02-19T15:18:35.626Z,96384.16
2023-02-19T15:21:04.948Z,96382.31
2023-02-19T15:23:34.932Z,96382.19
2023-02-19T15:26:02.979Z,96385.19
2023-02-19T15:28:34.314Z,96375.63
2023-02-19T15:31:14.201Z,96381.78
2023-02-19T15:33:49.819Z,96376.13
2023-02-19T15:36:26.326Z,96376.16
2023-02-19T15:38:58.056Z,96388.19
2023-02-19T15:41:28.720Z,96401.84
2023-02-19T15:44:10.895Z,96408.00
2023-02-19T15:46:40.116Z,96394.56
2023-02-19T15:49:16.497Z,96391.75
2023-02-19T15:51:51.096Z,96390.16
2023-02-19T15:54:27.627Z,96388.53
2023-02-19T15:57:01.217Z,96393.66
2023-02-19T15:59:40.398Z,96402.56
2023-02-19T16:02:13.895Z,96403.00
2023-02-19T16:04:44.485Z,96399.38
2023-02-19T16:07:24.683Z,96408.75
2023-02-19T16:10:18.161Z,96414.84
2023-02-19T16:12:55.434Z,96414.66
2023-02-19T16:15:24.597Z,96414.47
2023-02-19T16:17:52.265Z,96419.75
2023-02-19T16:20:26.818Z,96428.88
2023-02-19T16:23:01.800Z,96437.09
2023-02-19T16:25:36.839Z,96422.47
2023-02-19T16:28:12.695Z,96419.31
2023-02-19T16:30:42.458Z,96415.00
2023-02-19T16:33:36.999Z,96423.06
2023-02-19T16:36:23.259Z,96424.34
2023-02-19T16:39:25.918Z,96433.09
2023-02-19T16:42:17.064Z,96445.53
2023-02-19T16:44:45.672Z,96438.41
2023-02-19T16:47:33.048Z,96439.22
2023-02-19T16:50:04.040Z,96440.25
2023-02-19T16:52:31.417Z,96445.16
2023-02-19T16:54:58.619Z,96456.09
2023-02-19T16:57:25.874Z,96462.00
2023-02-19T16:59:53.308Z,96471.31
2023-02-19T17:02:24.558Z,96478.03
2023-02-19T17:04:53.615Z,96473.94
2023-02-19T17:07:21.854Z,96475.97
2023-02-19T17:09:49.037Z,96473.75
2023-02-19T17:12:17.294Z,96486.66
2023-02-19T17:14:44.976Z,96488.91
2023-02-19T17:17:12.223Z,96497.25
2023-02-19T17:19:39.433Z,96494.78
2023-02-19T17:22:08.694Z,96493.13
2023-02-19T17:24:35.896Z,96493.56
2023-02-19T17:27:03.333Z,96508.13
2023-02-19T17:29:30.714Z,96505.44
2023-02-19T17:31:57.926Z,96500.16
2023-02-19T17:34:25.360Z,96513.47
2023-02-19T17:36:52.533Z,96506.78
2023-02-19T17:39:21.333Z,96516.47
2023-02-19T17:41:48.495Z,96523.56
2023-02-19T17:44:16.293Z,96519.28
2023-02-19T17:46:45.976Z,96524.72
2023-02-19T17:49:13.484Z,96523.56
2023-02-19T17:51:40.588Z,96530.38
2023-02-19T17:54:08.476Z,96531.38
2023-02-19T17:56:37.296Z,96527.19
2023-02-19T17:59:04.496Z,96536.84
2023-02-19T18:01:31.919Z,96534.00
2023-02-19T18:03:59.237Z,96544.63
2023-02-19T18:06:26.454Z,96538.97
2023-02-19T18:08:54.175Z,96552.78
2023-02-19T18:11:23.039Z,96545.34
2023-02-19T18:13:52.702Z,96550.00
2023-02-19T18:16:20.325Z,96550.00
2023-02-19T18:18:47.554Z,96551.63
2023-02-19T18:21:15.414Z,96549.78
2023-02-19T18:23:42.900Z,96554.44
2023-02-19T18:26:11.329Z,96559.22
2023-02-19T18:28:39.058Z,96564.06
2023-02-19T18:31:08.330Z,96563.84
2023-02-19T18:33:40.979Z,96555.72
2023-02-19T18:36:10.717Z,96559.69
2023-02-19T18:38:41.834Z,96558.44
2023-02-19T18:41:11.906Z,96554.53
2023-02-19T18:43:40.783Z,96548.66
2023-02-19T18:46:10.211Z,96548.81
2023-02-19T18:48:37.850Z,96548.03
2023-02-19T18:51:05.860Z,96545.38
2023-02-19T18:53:33.855Z,96548.38
2023-02-19T18:56:01.133Z,96543.06
2023-02-19T18:58:28.487Z,96540.28
2023-02-19T19:00:55.826Z,96543.41
2023-02-19T19:03:24.534Z,96538.63
2023-02-19T19:05:51.779Z,96537.94
2023-02-19T19:08:19.036Z,96546.78
2023-02-19T19:10:46.316Z,96545.56
2023-02-19T19:13:13.698Z,96550.19
2023-02-19T19:15:40.935Z,96555.00
2023-02-19T19:18:08.490Z,96555.81
2023-02-19T19:20:37.202Z,96553.28
2023-02-19T19:23:04.377Z,96556.38
2023-02-19T19:25:31.597Z,96551.75
2023-02-19T19:27:58.903Z,96553.81
2023-02-19T19:30:26.198Z,96553.91
2023-02-19T19:32:53.913Z,96557.22
2023-02-19T19:35:22.421Z,96567.22
2023-02-19T19:37:51.460Z,96573.84
2023-02-19T19:40:19.816Z,96566.94
2023-02-19T19:42:47.701Z,96566.09
2023-02-19T19:45:15.727Z,96570.59
2023-02-19T19:47:43.090Z,96575.47
2023-02-19T19:50:11.203Z,96563.34
2023-02-19T19:52:38.496Z,96566.16
2023-02-19T19:55:08.142Z,96558.09
2023-02-19T19:57:35.401Z,96565.41
2023-02-19T20:00:03.224Z,96565.53
2023-02-19T20:02:30.525Z,96556.41
2023-02-19T20:04:57.698Z,96553.88
2023-02-19T20:07:24.819Z,96547.19
2023-02-19T20:09:52.115Z,96550.75
2023-02-19T20:12:20.794Z,96550.38
2023-02-19T20:14:47.963Z,96547.13
2023-02-19T20:17:15.795Z,96542.22
2023-02-19T20:19:43.123Z,96549.56
2023-02-19T20:22:10.337Z,96560.19
2023-02-19T20:24:37.794Z,96573.69
2023-02-19T20:27:05.315Z,96583.63
2023-02-19T20:29:35.002Z,96585.47
2023-02-19T20:32:02.760Z,96582.75
2023-02-19T20:34:31.111Z,96583.44
2023-02-19T20:36:59.213Z,96588.69
2023-02-19T20:39:27.033Z,96580.47
2023-02-19T20:41:54.573Z,96581.19
2023-02-19T20:44:21.820Z,96589.88
2023-02-19T20:46:52.777Z,96599.56
2023-02-19T20:49:22.067Z,96601.75
2023-02-19T20:51:51.312Z,96604.75
2023-02-19T20:54:19.937Z,96623.94
2023-02-19T20:57:06.503Z,96621.69
2023-02-19T20:59:54.968Z,96612.16
2023-02-19T21:02:29.042Z,96613.25
2023-02-19T21:04:57.463Z,96622.78
2023-02-19T21:07:26.092Z,96629.47
2023-02-19T21:10:20.847Z,96634.25
2023-02-19T21:13:33.631Z,96631.72
2023-02-19T21:16:02.956Z,96629.09
2023-02-19T21:18:31.717Z,96606.63
2023-02-19T21:20:59.523Z,96605.22
2023-02-19T21:23:27.033Z,96606.28
2023-02-19T21:25:54.761Z,96606.03
2023-02-19T21:28:22.035Z,96601.75
2023-02-19T21:30:49.917Z,96606.81
2023-02-19T21:33:17.801Z,96619.78
2023-02-19T21:35:46.797Z,96620.84
2023-02-19T21:38:18.959Z,96622.84
2023-02-19T21:40:46.373Z,96628.84
2023-02-19T21:43:13.594Z,96622.25
2023-02-19T21:45:40.818Z,96632.56
2023-02-19T21:48:09.375Z,96633.97
2023-02-19T21:50:36.554Z,96630.72
2023-02-19T21:53:05.354Z,96632.91
2023-02-19T21:55:32.672Z,96636.94
2023-02-19T21:57:59.751Z,96640.09
2023-02-19T22:00:26.891Z,96635.53
2023-02-19T22:02:54.037Z,96640.78
2023-02-19T22:05:21.194Z,96642.03
2023-02-19T22:07:48.434Z,96632.53
2023-02-19T22:10:17.312Z,96629.38
2023-02-19T22:12:44.673Z,96628.56
2023-02-19T22:15:11.794Z,96629.72
2023-02-19T22:17:39.270Z,96637.22
2023-02-19T22:20:08.115Z,96639.66
2023-02-19T22:22:35.191Z,96633.88
2023-02-19T22:25:02.397Z,96628.94
2023-02-19T22:27:31.034Z,96635.88
2023-02-19T22:29:58.188Z,96629.72
2023-02-19T22:32:25.468Z,96634.69
2023-02-19T22:34:52.809Z,96646.47
2023-02-19T22:37:20.250Z,96638.53
2023-02-19T22:39:47.587Z,96636.16
2023-02-19T22:42:15.046Z,96640.84
2023-02-19T22:44:44.533Z,96641.16
2023-02-19T22:47:11.747Z,96641.47
2023-02-19T22:49:39.653Z,96644.94
2023-02-19T22:52:09.933Z,96651.63
2023-02-19T22:54:37.505Z,96649.00
2023-02-19T22:57:05.287Z,96649.66
2023-02-19T22:59:32.730Z,96649.28
2023-02-19T23:02:01.481Z,96651.56
2023-02-19T23:04:28.664Z,96642.94
2023-02-19T23:06:55.831Z,96648.72
2023-02-19T23:09:25.856Z,96645.47
2023-02-19T23:11:53.862Z,96645.13
2023-02-19T23:14:22.359Z,96641.47
2023-02-19T23:16:49.597Z,96638.94
2023-02-19T23:19:18.398Z,96640.78
2023-02-19T23:21:45.975Z,96641.94
2023-02-19T23:24:14.782Z,96653.34
2023-02-19T23:26:43.558Z,96651.16
2023-02-19T23:29:11.021Z,96645.13
2023-02-19T23:31:38.332Z,96652.63
2023-02-19T23:34:05.635Z,96653.91
2023-02-19T23:36:34.340Z,96662.84
2023-02-19T23:39:01.494Z,96660.16
2023-02-19T23:41:28.950Z,96656.78
2023-02-19T23:43:56.073Z,96659.78
2023-02-19T23:46:23.162Z,96664.66
2023-02-19T23:48:50.249Z,96661.56
2023-02-19T23:51:17.389Z,96658.59
2023-02-19T23:53:46.009Z,96654.69
2023-02-19T23:56:13.417Z,96662.56
2023-02-19T23:58:40.969Z,96664.28
